Aviation Digital Data Service (ADDS)

Output produced by METARs form (0933 UTC 20 September 2019)
found at http://aviationweather.gov/metar/data/
 
KGJT 200520Z 2006/2106 14012KT P6SM SCT200 
     FM201600 19017G25KT P6SM SCT250 
     FM202100 25020G30KT P6SM FEW100 SCT120 
     FM210000 27016G24KT P6SM FEW120 SCT250 
     FM210300 32005KT P6SM FEW250